North Palm Springs, CA

10:34 AM PDT on May 22, 2015 (GMT -0700)
Four Seasons 2 | | Change Station
CLOSE
Current Station
Personal Weather Station
Location: Palm Springs, CA
Elevation: 548 ft
Nearby Weather Stations
Active Advisory: Wind Advisory Active Notice: Record Report

Elev 548 ft 33.87 °N, 116.53 °W | Updated 5 seconds ago

Partly Cloudy
Partly Cloudy
69.6 °F
Feels Like 69.6 °F
N
33.1
Wind Variable Wind from WSW
Gusts 37.4 mph

Today
High -- | Low -- °F
--% Chance of Precip.
Yesterday
High -- | Low -- °F
Precip. -- in
5:40 AM 7:45 PM
Waxing Crescent, 22% visible
Pressure 29.91 in
Visibility 10.0 miles
Clouds Clear
Dew Point 43 °F
Humidity 38%
Rainfall 0.00 in
Snow Depth Not available.
UV 6.0 out of 12
Pollen 4.00 out of 12
Air Quality Not available.
Flu Activity Sporadic
METAR KPSP 221653Z 29005KT 10SM CLR 22/04 A2991 RMK AO2 SLP128 T02220044

More Conditions Fewer Conditions

Pressure 29.91 in
Visibility 10.0 miles
Clouds Clear
Dew Point 43 °F
Humidity 38%
Rainfall 0.00 in
Snow Depth Not available.
UV 6.0 out of 12
Pollen 4.00 out of 12
Air Quality Not available.
Flu Activity Sporadic
METAR KPSP 221653Z 29005KT 10SM CLR 22/04 A2991 RMK AO2 SLP128 T02220044

More Conditions Fewer Conditions

10-Day Weather Forecast

Almanac

Astronomy

May. 22, 2015 Rise Set
Actual Time
Civil Twilight
Nautical Twilight
Astronomical Twilight
Moon
Length of Visible Light
Length of Day
Tomorrow will be .
, % of the Moon is Illuminated

Today's Extremes

State Highs State Lows

Community

WunderPhotos

Upload Photos

1,823,268 photos uploaded!

WunderBlogs® & News

Nearby

Air Quality

  Air Quality AQ Index Pollutant
Not available.

Snow Depth

Station Depth Elevation

Earthquake Activity

City Distance Mag. Time & Date
Minimum magnitude displayed is 2.5.

Coastal Water Temperatures

Place Temperature

Stations

Nearby Weather Stations

Station Location Temp. Windchill Dew Point Humidity Wind Precip. Elev Updated Type
                   
Wind Advisory
Statement as of 2:55 AM PDT on May 22, 2015

... Wind Advisory now in effect until 9 PM PDT this evening...

* winds... westerly 25 to 35 mph with gusts to 50 mph. Isolated top
gusts to 60 mph through and just east of San Gorgonio Pass.

* Visibility... locally reduced to 2 miles or less in blowing dust
or sand.

* Impacts... difficult driving conditions particularly along Interstate
10 north of Palm Springs.

Precautionary/preparedness actions...

A Wind Advisory means that winds of 35 mph are expected. Winds
this strong can make driving difficult... especially for high
profile vehicles. Use extra caution.



Mm